createdAt,value
2019-03-22T00:00:31.633Z,19.28
2019-03-22T00:01:33.561Z,19.28
2019-03-22T00:02:34.952Z,19.29
2019-03-22T00:03:36.360Z,19.28
2019-03-22T00:04:37.773Z,19.26
2019-03-22T00:05:39.169Z,19.26
2019-03-22T00:06:40.548Z,19.25
2019-03-22T00:07:41.941Z,19.24
2019-03-22T00:08:43.317Z,19.24
2019-03-22T00:09:44.822Z,19.23
2019-03-22T00:10:46.209Z,19.23
2019-03-22T00:11:47.737Z,19.22
2019-03-22T00:12:49.150Z,19.22
2019-03-22T00:13:50.567Z,19.21
2019-03-22T00:14:51.987Z,19.21
2019-03-22T00:15:53.383Z,19.22
2019-03-22T00:16:54.764Z,19.20
2019-03-22T00:17:56.163Z,19.20
2019-03-22T00:18:57.549Z,19.19
2019-03-22T00:19:59.144Z,19.20
2019-03-22T00:21:00.533Z,19.19
2019-03-22T00:22:02.037Z,19.18
2019-03-22T00:23:03.427Z,19.19
2019-03-22T00:24:04.964Z,19.19
2019-03-22T00:25:06.543Z,19.19
2019-03-22T00:26:09.044Z,19.17
2019-03-22T00:27:16.372Z,19.18
2019-03-22T00:28:13.833Z,19.17
2019-03-22T00:29:15.305Z,19.18
2019-03-22T00:30:16.704Z,19.16
2019-03-22T00:31:18.080Z,19.17
2019-03-22T00:32:19.460Z,19.16
2019-03-22T00:33:20.846Z,19.16
2019-03-22T00:34:22.336Z,19.16
2019-03-22T00:35:23.725Z,19.16
2019-03-22T00:36:25.124Z,19.13
2019-03-22T00:37:26.597Z,19.15
2019-03-22T00:38:27.997Z,19.16
2019-03-22T00:39:29.381Z,19.17
2019-03-22T00:40:30.885Z,19.18
2019-03-22T00:41:32.379Z,19.19
2019-03-22T00:42:34.232Z,19.18
2019-03-22T00:43:35.618Z,19.19
2019-03-22T00:44:37.006Z,19.19
2019-03-22T00:45:38.493Z,19.20
2019-03-22T00:46:39.888Z,19.20
2019-03-22T00:47:41.264Z,19.19
2019-03-22T00:48:42.668Z,19.21
2019-03-22T00:49:44.050Z,19.21
2019-03-22T00:50:45.456Z,19.21
2019-03-22T00:51:46.849Z,19.22
2019-03-22T00:52:48.246Z,19.22
2019-03-22T00:53:49.759Z,19.22
2019-03-22T00:54:51.212Z,19.22
2019-03-22T00:55:52.588Z,19.22
2019-03-22T00:56:53.982Z,19.23
2019-03-22T00:57:55.372Z,19.23
2019-03-22T00:58:56.869Z,19.24
2019-03-22T00:59:58.344Z,19.24
2019-03-22T01:00:59.797Z,19.23
2019-03-22T01:02:01.218Z,19.23
2019-03-22T01:03:02.591Z,19.24
2019-03-22T01:04:03.992Z,19.24
2019-03-22T01:05:07.297Z,19.24
2019-03-22T01:06:08.968Z,19.24
2019-03-22T01:07:10.371Z,19.24
2019-03-22T01:08:11.883Z,19.25
2019-03-22T01:09:13.386Z,19.24
2019-03-22T01:10:14.865Z,19.26
2019-03-22T01:11:16.297Z,19.25
2019-03-22T01:12:17.804Z,19.25
2019-03-22T01:13:19.345Z,19.26
2019-03-22T01:14:20.863Z,19.25
2019-03-22T01:15:22.340Z,19.27
2019-03-22T01:16:23.835Z,19.26
2019-03-22T01:17:25.414Z,19.26
2019-03-22T01:18:26.931Z,19.26
2019-03-22T01:19:28.421Z,19.25
2019-03-22T01:20:29.858Z,19.25
2019-03-22T01:21:31.372Z,19.24
2019-03-22T01:22:32.923Z,19.23
2019-03-22T01:23:34.424Z,19.22
2019-03-22T01:24:35.902Z,19.23
2019-03-22T01:25:37.334Z,19.22
2019-03-22T01:26:38.944Z,19.21
2019-03-22T01:27:41.656Z,19.19
2019-03-22T01:28:43.167Z,19.20
2019-03-22T01:29:44.645Z,19.17
2019-03-22T01:30:46.185Z,19.16
2019-03-22T01:31:47.800Z,19.15
2019-03-22T01:32:49.408Z,19.14
2019-03-22T01:33:50.932Z,19.13
2019-03-22T01:34:52.465Z,19.13
2019-03-22T01:35:53.945Z,19.12
2019-03-22T01:36:55.345Z,19.11
2019-03-22T01:37:56.787Z,19.11
2019-03-22T01:38:58.237Z,19.09
2019-03-22T01:39:59.643Z,19.08
2019-03-22T01:41:01.084Z,19.07
2019-03-22T01:42:02.812Z,19.06
2019-03-22T01:43:04.260Z,19.06
2019-03-22T01:44:08.972Z,19.06
2019-03-22T01:45:12.505Z,19.06
2019-03-22T01:46:13.934Z,19.07
2019-03-22T01:47:15.370Z,19.06
2019-03-22T01:48:16.805Z,19.05
2019-03-22T01:49:18.244Z,19.04
2019-03-22T01:50:19.784Z,19.04
2019-03-22T01:51:21.210Z,19.03
2019-03-22T01:52:22.651Z,19.03
2019-03-22T01:53:24.080Z,19.02
2019-03-22T01:54:25.508Z,19.03
2019-03-22T01:55:26.945Z,19.03
2019-03-22T01:56:28.353Z,19.02
2019-03-22T01:57:29.737Z,19.03
2019-03-22T01:58:31.185Z,19.03
2019-03-22T01:59:32.561Z,19.04
2019-03-22T02:00:33.973Z,19.04
2019-03-22T02:01:35.378Z,19.04
2019-03-22T02:02:36.737Z,19.04
2019-03-22T02:03:38.236Z,19.03
2019-03-22T02:04:39.607Z,19.05
2019-03-22T02:05:41.007Z,19.05
2019-03-22T02:06:42.486Z,19.05
2019-03-22T02:07:43.886Z,19.06
2019-03-22T02:08:45.297Z,19.06
2019-03-22T02:09:46.697Z,19.08
2019-03-22T02:10:48.107Z,19.08
2019-03-22T02:11:49.561Z,19.08
2019-03-22T02:12:50.982Z,19.09
2019-03-22T02:13:52.402Z,19.08
2019-03-22T02:14:54.043Z,19.08
2019-03-22T02:15:55.455Z,19.08
2019-03-22T02:16:56.860Z,19.08
2019-03-22T02:17:58.263Z,19.07
2019-03-22T02:18:59.776Z,19.08
2019-03-22T02:20:01.285Z,19.08
2019-03-22T02:21:02.795Z,19.10
2019-03-22T02:22:04.300Z,19.09
2019-03-22T02:23:05.676Z,19.10
2019-03-22T02:24:07.074Z,19.10
2019-03-22T02:25:08.638Z,19.11
2019-03-22T02:26:10.037Z,19.11
2019-03-22T02:27:11.441Z,19.12
2019-03-22T02:28:12.935Z,19.12
2019-03-22T02:29:14.512Z,19.13
2019-03-22T02:30:16.766Z,19.13
2019-03-22T02:31:18.187Z,19.15
2019-03-22T02:32:19.570Z,19.15
2019-03-22T02:33:20.945Z,19.16
2019-03-22T02:34:22.330Z,19.17
2019-03-22T02:35:29.174Z,19.17
2019-03-22T02:36:26.992Z,19.17
2019-03-22T02:37:28.389Z,19.17
2019-03-22T02:38:29.763Z,19.17
2019-03-22T02:39:31.362Z,19.17
2019-03-22T02:40:32.765Z,19.18
2019-03-22T02:41:34.151Z,19.19
2019-03-22T02:42:35.533Z,19.17
2019-03-22T02:43:36.921Z,19.18
2019-03-22T02:44:38.306Z,19.17
2019-03-22T02:45:39.691Z,19.18
2019-03-22T02:46:41.069Z,19.19
2019-03-22T02:47:42.476Z,19.18
2019-03-22T02:48:43.932Z,19.18
2019-03-22T02:49:45.326Z,19.20
2019-03-22T02:50:46.802Z,19.20
2019-03-22T02:51:48.299Z,19.21
2019-03-22T02:52:49.777Z,19.20
2019-03-22T02:53:51.164Z,19.21
2019-03-22T02:54:52.645Z,19.22
2019-03-22T02:55:54.202Z,19.22
2019-03-22T02:56:55.754Z,19.20
2019-03-22T02:57:57.157Z,19.21
2019-03-22T02:58:59.461Z,19.20
2019-03-22T03:00:01.097Z,19.20
2019-03-22T03:01:02.466Z,19.20
2019-03-22T03:02:03.962Z,19.19
2019-03-22T03:03:05.345Z,19.19
2019-03-22T03:04:06.748Z,19.17
2019-03-22T03:05:08.750Z,19.17
2019-03-22T03:06:11.160Z,19.15
2019-03-22T03:07:12.567Z,19.15
2019-03-22T03:08:14.076Z,19.14
2019-03-22T03:09:15.450Z,19.12
2019-03-22T03:10:16.877Z,19.12
2019-03-22T03:11:18.211Z,19.10
2019-03-22T03:12:19.607Z,19.10
2019-03-22T03:13:20.981Z,19.09
2019-03-22T03:14:22.481Z,19.09
2019-03-22T03:15:23.997Z,19.08
2019-03-22T03:16:25.413Z,19.09
2019-03-22T03:17:26.935Z,19.08
2019-03-22T03:18:28.439Z,19.08
2019-03-22T03:19:29.809Z,19.08
2019-03-22T03:20:31.234Z,19.08
2019-03-22T03:21:32.588Z,19.08
2019-03-22T03:22:33.986Z,19.07
2019-03-22T03:23:35.374Z,19.06
2019-03-22T03:24:36.974Z,19.07
2019-03-22T03:25:38.384Z,19.08
2019-03-22T03:26:39.904Z,19.08
2019-03-22T03:27:41.353Z,19.07
2019-03-22T03:28:42.835Z,19.07
2019-03-22T03:29:44.310Z,19.08
2019-03-22T03:30:45.785Z,19.10
2019-03-22T03:31:47.165Z,19.09
2019-03-22T03:32:48.584Z,19.09
2019-03-22T03:33:50.108Z,19.10
2019-03-22T03:34:52.567Z,19.10
2019-03-22T03:35:53.977Z,19.10
2019-03-22T03:36:55.393Z,19.11
2019-03-22T03:37:56.798Z,19.10
2019-03-22T03:38:58.199Z,19.11
2019-03-22T03:39:59.573Z,19.11
2019-03-22T03:41:01.070Z,19.11
2019-03-22T03:42:02.654Z,19.12
2019-03-22T03:43:04.037Z,19.13
2019-03-22T03:44:05.417Z,19.13
2019-03-22T03:45:19.334Z,19.12
2019-03-22T03:46:20.740Z,19.14
2019-03-22T03:47:22.151Z,19.16
2019-03-22T03:48:23.557Z,19.14
2019-03-22T03:49:24.980Z,19.14
2019-03-22T03:50:26.320Z,19.14
2019-03-22T03:51:27.715Z,19.13
2019-03-22T03:52:29.093Z,19.12
2019-03-22T03:53:30.491Z,19.13
2019-03-22T03:54:31.882Z,19.13
2019-03-22T03:55:33.284Z,19.13
2019-03-22T03:56:34.802Z,19.15
2019-03-22T03:57:36.221Z,19.16
2019-03-22T03:58:51.766Z,19.16
2019-03-22T03:59:41.040Z,19.17
2019-03-22T04:00:42.631Z,19.18
2019-03-22T04:01:44.222Z,19.18
2019-03-22T04:02:45.734Z,19.19
2019-03-22T04:03:47.213Z,19.20
2019-03-22T04:04:48.625Z,19.20
2019-03-22T04:05:51.002Z,19.21
2019-03-22T04:06:52.395Z,19.21
2019-03-22T04:07:53.775Z,19.20
2019-03-22T04:08:55.169Z,19.19
2019-03-22T04:09:56.545Z,19.19
2019-03-22T04:10:58.063Z,19.17
2019-03-22T04:11:59.480Z,19.18
2019-03-22T04:13:00.997Z,19.18
2019-03-22T04:14:03.397Z,19.16
2019-03-22T04:15:05.098Z,19.14
2019-03-22T04:16:06.472Z,19.16
2019-03-22T04:17:07.876Z,19.15
2019-03-22T04:18:09.249Z,19.15
2019-03-22T04:19:13.864Z,19.15
2019-03-22T04:20:15.262Z,19.13
2019-03-22T04:21:16.673Z,19.14
2019-03-22T04:22:18.087Z,19.13
2019-03-22T04:23:19.521Z,19.11
2019-03-22T04:24:20.935Z,19.11
2019-03-22T04:25:22.406Z,19.10
2019-03-22T04:26:23.812Z,19.09
2019-03-22T04:27:25.216Z,19.07
2019-03-22T04:28:26.586Z,19.07
2019-03-22T04:29:28.092Z,19.06
2019-03-22T04:30:29.478Z,19.07
2019-03-22T04:31:30.861Z,19.08
2019-03-22T04:32:32.317Z,19.10
2019-03-22T04:33:33.693Z,19.11
2019-03-22T04:34:35.099Z,19.11
2019-03-22T04:35:36.488Z,19.11
2019-03-22T04:36:37.878Z,19.11
2019-03-22T04:37:39.375Z,19.10
2019-03-22T04:38:40.810Z,19.11
2019-03-22T04:39:42.200Z,19.11
2019-03-22T04:40:43.599Z,19.11
2019-03-22T04:41:44.976Z,19.12
2019-03-22T04:42:46.373Z,19.10
2019-03-22T04:43:47.745Z,19.11
2019-03-22T04:44:49.138Z,19.11
2019-03-22T04:45:51.832Z,19.11
2019-03-22T04:46:53.628Z,19.10
2019-03-22T04:48:07.844Z,19.12
2019-03-22T04:49:10.532Z,19.11
2019-03-22T04:50:12.393Z,19.14
2019-03-22T04:51:13.996Z,19.14
2019-03-22T04:52:17.871Z,19.14
2019-03-22T04:53:22.211Z,19.14
2019-03-22T04:54:25.553Z,19.15
2019-03-22T04:55:27.646Z,19.14
2019-03-22T04:56:31.047Z,19.14
2019-03-22T04:57:33.819Z,19.14
2019-03-22T04:58:38.900Z,19.13
2019-03-22T04:59:42.789Z,19.15
2019-03-22T05:00:44.777Z,19.15
2019-03-22T05:01:48.992Z,19.15
2019-03-22T05:02:50.673Z,19.15
2019-03-22T05:03:52.087Z,19.16
2019-03-22T05:04:53.989Z,19.15
2019-03-22T05:05:57.497Z,19.16
2019-03-22T05:06:59.093Z,19.16
2019-03-22T05:08:00.565Z,19.18
2019-03-22T05:09:04.163Z,19.18
2019-03-22T05:10:07.531Z,19.19
2019-03-22T05:11:11.223Z,19.20
2019-03-22T05:12:16.212Z,19.21
2019-03-22T05:13:19.232Z,19.22
2019-03-22T05:14:21.427Z,19.24
2019-03-22T05:15:22.932Z,19.25
2019-03-22T05:16:24.739Z,19.24
2019-03-22T05:17:26.332Z,19.25
2019-03-22T05:18:31.000Z,19.25
2019-03-22T05:19:35.999Z,19.25
2019-03-22T05:20:39.175Z,19.28
2019-03-22T05:21:41.168Z,19.28
2019-03-22T05:22:44.758Z,19.28
2019-03-22T05:23:47.668Z,19.28
2019-03-22T05:24:49.874Z,19.29
2019-03-22T05:25:54.584Z,19.29
2019-03-22T05:26:57.888Z,19.29
2019-03-22T05:28:01.582Z,19.29
2019-03-22T05:29:05.063Z,19.29
2019-03-22T05:30:07.956Z,19.29
2019-03-22T05:31:12.931Z,19.29
2019-03-22T05:32:15.108Z,19.30
2019-03-22T05:33:16.553Z,19.30
2019-03-22T05:34:17.915Z,19.29
2019-03-22T05:35:19.289Z,19.29
2019-03-22T05:36:21.177Z,19.30
2019-03-22T05:37:22.670Z,19.29
2019-03-22T05:38:24.152Z,19.29
2019-03-22T05:39:25.651Z,19.29
2019-03-22T05:40:27.032Z,19.28
2019-03-22T05:41:28.425Z,19.28
2019-03-22T05:42:29.845Z,19.29
2019-03-22T05:43:31.240Z,19.28
2019-03-22T05:44:32.808Z,19.29
2019-03-22T05:45:34.189Z,19.28
2019-03-22T05:46:35.584Z,19.28
2019-03-22T05:47:38.084Z,19.26
2019-03-22T05:48:39.458Z,19.25
2019-03-22T05:49:40.857Z,19.24
2019-03-22T05:50:42.247Z,19.22
2019-03-22T05:51:43.654Z,19.22
2019-03-22T05:52:45.044Z,19.21
2019-03-22T05:53:46.532Z,19.21
2019-03-22T05:54:47.921Z,19.21
2019-03-22T05:55:49.484Z,19.21
2019-03-22T05:56:50.975Z,19.19
2019-03-22T05:57:52.374Z,19.20
2019-03-22T05:58:53.762Z,19.19
2019-03-22T05:59:55.283Z,19.19
2019-03-22T06:00:56.760Z,19.16
2019-03-22T06:01:58.155Z,19.15
2019-03-22T06:02:59.556Z,19.15
2019-03-22T06:04:00.932Z,19.15
2019-03-22T06:05:04.335Z,19.15
2019-03-22T06:06:05.710Z,19.14
2019-03-22T06:07:07.122Z,19.16
2019-03-22T06:08:08.516Z,19.16
2019-03-22T06:09:09.927Z,19.17
2019-03-22T06:10:11.428Z,19.18
2019-03-22T06:11:12.837Z,19.19
2019-03-22T06:12:14.249Z,19.23
2019-03-22T06:13:15.666Z,19.25
2019-03-22T06:14:17.128Z,19.28
2019-03-22T06:15:18.536Z,19.31
2019-03-22T06:16:19.922Z,19.35
2019-03-22T06:17:21.313Z,19.38
2019-03-22T06:18:22.801Z,19.43
2019-03-22T06:19:24.212Z,19.48
2019-03-22T06:20:25.617Z,19.53
2019-03-22T06:21:27.024Z,19.57
2019-03-22T06:22:28.441Z,19.63
2019-03-22T06:23:29.872Z,19.70
2019-03-22T06:24:31.248Z,19.75
2019-03-22T06:25:32.653Z,19.80
2019-03-22T06:26:34.512Z,19.86
2019-03-22T06:27:35.893Z,19.91
2019-03-22T06:28:37.303Z,19.95
2019-03-22T06:29:38.692Z,20.01
2019-03-22T06:30:40.177Z,20.07
2019-03-22T06:31:41.572Z,20.11
2019-03-22T06:32:42.966Z,20.17
2019-03-22T06:33:44.347Z,20.21
2019-03-22T06:34:45.724Z,20.25
2019-03-22T06:35:47.122Z,20.29
2019-03-22T06:36:48.496Z,20.34
2019-03-22T06:37:49.896Z,20.38
2019-03-22T06:38:51.286Z,20.43
2019-03-22T06:39:52.700Z,20.47
2019-03-22T06:40:55.112Z,20.51
2019-03-22T06:41:56.522Z,20.50
2019-03-22T06:42:58.036Z,20.58
2019-03-22T06:43:59.552Z,20.62
2019-03-22T06:45:01.028Z,20.65
2019-03-22T06:46:02.424Z,20.68
2019-03-22T06:47:03.792Z,20.69
2019-03-22T06:48:05.192Z,20.73
2019-03-22T06:49:06.599Z,20.74
2019-03-22T06:50:08.001Z,20.76
2019-03-22T06:51:09.409Z,20.77
2019-03-22T06:52:10.833Z,20.78
2019-03-22T06:53:12.253Z,20.79
2019-03-22T06:54:13.827Z,20.80
2019-03-22T06:55:15.204Z,20.81
2019-03-22T06:56:16.588Z,20.82
2019-03-22T06:57:18.055Z,20.82
2019-03-22T06:58:19.426Z,20.82
2019-03-22T06:59:20.820Z,20.82
2019-03-22T07:00:22.311Z,20.83
2019-03-22T07:01:23.696Z,20.83
2019-03-22T07:02:25.101Z,20.83
2019-03-22T07:03:26.522Z,20.83
2019-03-22T07:04:27.925Z,20.83
2019-03-22T07:05:29.302Z,20.83
2019-03-22T07:06:30.823Z,20.83
2019-03-22T07:07:32.199Z,20.83
2019-03-22T07:08:33.613Z,20.82
2019-03-22T07:09:35.117Z,20.82
2019-03-22T07:10:36.736Z,20.82
2019-03-22T07:11:38.248Z,20.82
2019-03-22T07:12:39.658Z,20.82
2019-03-22T07:13:41.069Z,20.82
2019-03-22T07:14:42.469Z,20.83
2019-03-22T07:15:43.853Z,20.86
2019-03-22T07:16:45.354Z,20.87
2019-03-22T07:17:46.829Z,20.88
2019-03-22T07:18:49.233Z,20.87
2019-03-22T07:19:50.619Z,20.86
2019-03-22T07:20:52.034Z,20.85
2019-03-22T07:21:53.443Z,20.83
2019-03-22T07:22:54.848Z,20.82
2019-03-22T07:23:56.372Z,20.80
2019-03-22T07:24:58.213Z,20.79
2019-03-22T07:25:59.683Z,20.77
2019-03-22T07:27:01.073Z,20.77
2019-03-22T07:28:03.524Z,20.77
2019-03-22T07:29:04.904Z,20.76
2019-03-22T07:30:18.682Z,20.75
2019-03-22T07:31:13.304Z,20.75
2019-03-22T07:32:14.690Z,20.74
2019-03-22T07:33:16.077Z,20.73
2019-03-22T07:34:18.571Z,20.70
2019-03-22T07:35:19.976Z,20.70
2019-03-22T07:36:21.348Z,20.68
2019-03-22T07:37:22.748Z,20.66
2019-03-22T07:38:24.716Z,20.66
2019-03-22T07:39:26.121Z,20.66
2019-03-22T07:40:27.504Z,20.66
2019-03-22T07:41:28.890Z,20.62
2019-03-22T07:42:30.284Z,20.63
2019-03-22T07:43:31.668Z,20.61
2019-03-22T07:44:33.062Z,20.61
2019-03-22T07:45:34.459Z,20.59
2019-03-22T07:46:35.834Z,20.58
2019-03-22T07:47:37.320Z,20.58
2019-03-22T07:48:38.693Z,20.58
2019-03-22T07:49:40.096Z,20.58
2019-03-22T07:50:41.481Z,20.58
2019-03-22T07:51:42.874Z,20.57
2019-03-22T07:52:44.262Z,20.57
2019-03-22T07:53:45.649Z,20.58
2019-03-22T07:54:47.039Z,20.58
2019-03-22T07:55:48.553Z,20.58
2019-03-22T07:56:49.937Z,20.57
2019-03-22T07:57:51.335Z,20.57
2019-03-22T07:58:52.886Z,20.58
2019-03-22T07:59:54.279Z,20.58
2019-03-22T08:00:55.691Z,20.57
2019-03-22T08:01:57.175Z,20.56
2019-03-22T08:02:58.587Z,20.56
2019-03-22T08:04:00.998Z,20.56
2019-03-22T08:05:04.110Z,20.55
2019-03-22T08:06:05.554Z,20.55
2019-03-22T08:07:07.036Z,20.55
2019-03-22T08:08:08.434Z,20.55
2019-03-22T08:09:09.807Z,20.55
2019-03-22T08:10:11.401Z,20.55
2019-03-22T08:11:12.911Z,20.54
2019-03-22T08:12:14.399Z,20.53
2019-03-22T08:13:15.914Z,20.54
2019-03-22T08:14:17.328Z,20.54
2019-03-22T08:15:26.781Z,20.54
2019-03-22T08:16:28.414Z,20.54
2019-03-22T08:17:29.775Z,20.56
2019-03-22T08:18:31.305Z,20.54
2019-03-22T08:19:32.671Z,20.54
2019-03-22T08:20:34.100Z,20.54
2019-03-22T08:21:35.561Z,20.54
2019-03-22T08:22:37.064Z,20.54
2019-03-22T08:23:38.490Z,20.53
2019-03-22T08:24:39.885Z,20.52
2019-03-22T08:25:43.480Z,20.54
2019-03-22T08:26:44.601Z,20.53
2019-03-22T08:27:46.086Z,20.53
2019-03-22T08:28:47.500Z,20.51
2019-03-22T08:29:49.032Z,20.51
2019-03-22T08:30:50.540Z,20.51
2019-03-22T08:31:51.905Z,20.50
2019-03-22T08:32:53.294Z,20.51
2019-03-22T08:33:54.677Z,20.49
2019-03-22T08:34:56.168Z,20.47
2019-03-22T08:35:57.556Z,20.46
2019-03-22T08:36:58.949Z,20.46
2019-03-22T08:38:00.335Z,20.44
2019-03-22T08:39:06.247Z,20.43
2019-03-22T08:40:07.829Z,20.42
2019-03-22T08:41:09.201Z,20.41
2019-03-22T08:42:10.593Z,20.40
2019-03-22T08:43:11.956Z,20.39
2019-03-22T08:44:13.343Z,20.38
2019-03-22T08:45:14.840Z,20.36
2019-03-22T08:46:16.350Z,20.36
2019-03-22T08:47:17.728Z,20.37
2019-03-22T08:48:19.216Z,20.37
2019-03-22T08:49:20.778Z,20.35
2019-03-22T08:50:22.172Z,20.36
2019-03-22T08:51:23.582Z,20.35
2019-03-22T08:52:24.967Z,20.36
2019-03-22T08:53:26.349Z,20.35
2019-03-22T08:54:27.759Z,20.35
2019-03-22T08:55:29.121Z,20.35
2019-03-22T08:56:30.514Z,20.35
2019-03-22T08:57:31.916Z,20.37
2019-03-22T08:58:34.291Z,20.38
2019-03-22T08:59:35.717Z,20.39
2019-03-22T09:00:39.699Z,20.40
2019-03-22T09:01:40.446Z,20.40
2019-03-22T09:02:41.853Z,20.41
2019-03-22T09:03:43.395Z,20.40
2019-03-22T09:04:44.928Z,20.40
2019-03-22T09:05:46.346Z,20.39
2019-03-22T09:06:47.754Z,20.40
2019-03-22T09:07:49.175Z,20.39
2019-03-22T09:08:50.634Z,20.38
2019-03-22T09:09:52.093Z,20.39
2019-03-22T09:10:53.566Z,20.39
2019-03-22T09:11:54.911Z,20.39
2019-03-22T09:12:56.473Z,20.40
2019-03-22T09:13:57.914Z,20.41
2019-03-22T09:14:59.324Z,20.41
2019-03-22T09:16:00.733Z,20.42
2019-03-22T09:17:02.183Z,20.42
2019-03-22T09:18:03.582Z,20.41
2019-03-22T09:19:04.944Z,20.42
2019-03-22T09:20:08.828Z,20.43
2019-03-22T09:21:10.231Z,20.43
2019-03-22T09:22:11.759Z,20.43
2019-03-22T09:23:13.196Z,20.44
2019-03-22T09:24:14.627Z,20.44
2019-03-22T09:25:16.085Z,20.44
2019-03-22T09:26:19.931Z,20.43
2019-03-22T09:27:20.869Z,20.44
2019-03-22T09:28:22.255Z,20.45
2019-03-22T09:29:23.795Z,20.45
2019-03-22T09:30:25.156Z,20.44
2019-03-22T09:31:26.660Z,20.44
2019-03-22T09:32:28.067Z,20.44
2019-03-22T09:33:29.638Z,20.43
2019-03-22T09:34:33.988Z,20.42
2019-03-22T09:35:34.311Z,20.43
2019-03-22T09:36:35.708Z,20.42
2019-03-22T09:37:37.108Z,20.42
2019-03-22T09:38:38.601Z,20.42
2019-03-22T09:39:40.275Z,20.42
2019-03-22T09:40:41.747Z,20.40
2019-03-22T09:41:43.182Z,20.41
2019-03-22T09:42:44.555Z,20.39
2019-03-22T09:43:45.927Z,20.39
2019-03-22T09:44:47.610Z,20.38
2019-03-22T09:45:49.005Z,20.39
2019-03-22T09:46:50.413Z,20.38
2019-03-22T09:47:51.883Z,20.38
2019-03-22T09:48:53.408Z,20.38
2019-03-22T09:49:54.785Z,20.38
2019-03-22T09:50:56.275Z,20.36
2019-03-22T09:51:57.725Z,20.38
2019-03-22T09:52:59.218Z,20.38
2019-03-22T09:54:00.679Z,20.37
2019-03-22T09:55:12.614Z,20.38
2019-03-22T09:56:05.532Z,20.38
2019-03-22T09:57:06.887Z,20.38
2019-03-22T09:58:08.354Z,20.37
2019-03-22T09:59:09.777Z,20.37
2019-03-22T10:00:18.135Z,20.40
2019-03-22T10:01:23.965Z,20.39
2019-03-22T10:02:23.087Z,20.41
2019-03-22T10:03:24.553Z,20.41
2019-03-22T10:04:26.066Z,20.40
2019-03-22T10:05:27.411Z,20.41
2019-03-22T10:06:28.822Z,20.41
2019-03-22T10:07:30.188Z,20.40
2019-03-22T10:08:31.685Z,20.40
2019-03-22T10:09:33.176Z,20.39
2019-03-22T10:10:34.599Z,20.39
2019-03-22T10:11:36.003Z,20.42
2019-03-22T10:12:37.531Z,20.41
2019-03-22T10:13:39.044Z,20.42
2019-03-22T10:14:40.443Z,20.42
2019-03-22T10:15:41.874Z,20.42
2019-03-22T10:16:43.324Z,20.43
2019-03-22T10:17:44.701Z,20.42
2019-03-22T10:18:46.137Z,20.42
2019-03-22T10:19:47.638Z,20.41
2019-03-22T10:20:49.107Z,20.42
2019-03-22T10:21:50.661Z,20.42
2019-03-22T10:22:52.327Z,20.42
2019-03-22T10:23:53.823Z,20.42
2019-03-22T10:24:55.248Z,20.43
2019-03-22T10:25:56.735Z,20.42
2019-03-22T10:26:58.091Z,20.42
2019-03-22T10:27:59.540Z,20.43
2019-03-22T10:29:01.044Z,20.42
2019-03-22T10:30:06.168Z,20.42
2019-03-22T10:31:07.946Z,20.43
2019-03-22T10:32:09.441Z,20.43
2019-03-22T10:33:22.156Z,20.42
2019-03-22T10:34:14.198Z,20.41
2019-03-22T10:35:25.567Z,20.40
2019-03-22T10:36:19.962Z,20.39
2019-03-22T10:37:21.391Z,20.39
2019-03-22T10:38:31.012Z,20.38
2019-03-22T10:39:26.042Z,20.38
2019-03-22T10:40:27.456Z,20.37
2019-03-22T10:41:28.823Z,20.35
2019-03-22T10:42:30.270Z,20.36
2019-03-22T10:43:31.698Z,20.35
2019-03-22T10:44:33.229Z,20.35
2019-03-22T10:45:34.760Z,20.36
2019-03-22T10:46:36.235Z,20.36
2019-03-22T10:47:37.695Z,20.37
2019-03-22T10:48:40.818Z,20.37
2019-03-22T10:49:42.520Z,20.37
2019-03-22T10:50:43.970Z,20.37
2019-03-22T10:51:56.230Z,20.38
2019-03-22T10:52:48.712Z,20.38
2019-03-22T10:53:50.107Z,20.37
2019-03-22T10:54:51.583Z,20.37
2019-03-22T10:55:52.976Z,20.38
2019-03-22T10:56:54.356Z,20.38
2019-03-22T10:57:55.766Z,20.39
2019-03-22T10:58:57.142Z,20.39
2019-03-22T10:59:58.537Z,20.39
2019-03-22T11:00:59.930Z,20.40
2019-03-22T11:02:03.562Z,20.40
2019-03-22T11:03:04.977Z,20.40
2019-03-22T11:05:09.082Z,20.41
2019-03-22T11:06:10.497Z,20.41
2019-03-22T11:07:11.877Z,20.42
2019-03-22T11:08:13.275Z,20.42
2019-03-22T11:09:14.655Z,20.43
2019-03-22T11:10:16.050Z,20.44
2019-03-22T11:11:17.542Z,20.45
2019-03-22T11:12:18.984Z,20.45
2019-03-22T11:13:20.528Z,20.46
2019-03-22T11:14:21.982Z,20.47
2019-03-22T11:15:24.047Z,20.47
2019-03-22T11:16:25.645Z,20.48
2019-03-22T11:17:28.063Z,20.49
2019-03-22T11:18:36.978Z,20.50
2019-03-22T11:19:32.767Z,20.49
2019-03-22T11:20:34.225Z,20.50
2019-03-22T11:21:35.659Z,20.50
2019-03-22T11:22:37.100Z,20.49
2019-03-22T11:23:38.520Z,20.49
2019-03-22T11:24:40.057Z,20.50
2019-03-22T11:25:41.593Z,20.50
2019-03-22T11:26:43.023Z,20.49
2019-03-22T11:27:44.424Z,20.50
2019-03-22T11:28:45.850Z,20.49
2019-03-22T11:29:47.256Z,20.50
2019-03-22T11:30:48.791Z,20.49
2019-03-22T11:31:50.200Z,20.50
2019-03-22T11:32:52.217Z,20.49
2019-03-22T11:33:53.629Z,20.49
2019-03-22T11:34:55.122Z,20.49
2019-03-22T11:35:56.518Z,20.49
2019-03-22T11:36:58.045Z,20.48
2019-03-22T11:37:59.548Z,20.48
2019-03-22T11:39:00.977Z,20.48
2019-03-22T11:40:07.527Z,20.48
2019-03-22T11:41:08.954Z,20.48
2019-03-22T11:42:10.468Z,20.49
2019-03-22T11:43:11.878Z,20.47
2019-03-22T11:44:13.277Z,20.47
2019-03-22T11:45:19.127Z,20.48
2019-03-22T11:46:20.509Z,20.48
2019-03-22T11:47:21.902Z,20.48
2019-03-22T11:48:23.369Z,20.47
2019-03-22T11:49:24.862Z,20.47
2019-03-22T11:50:26.336Z,20.48
2019-03-22T11:51:27.928Z,20.48
2019-03-22T11:52:29.462Z,20.48
2019-03-22T11:53:30.851Z,20.49
2019-03-22T11:54:33.342Z,20.50
2019-03-22T11:55:34.724Z,20.51
2019-03-22T11:56:36.112Z,20.51
2019-03-22T11:57:37.515Z,20.50
2019-03-22T11:58:38.987Z,20.50
2019-03-22T11:59:40.386Z,20.51
2019-03-22T12:00:41.772Z,20.51
2019-03-22T12:01:43.166Z,20.50
2019-03-22T12:02:44.669Z,20.51
2019-03-22T12:03:46.083Z,20.51
2019-03-22T12:04:47.551Z,20.53
2019-03-22T12:05:49.005Z,20.55
2019-03-22T12:06:50.391Z,20.57
2019-03-22T12:07:51.784Z,20.60
2019-03-22T12:08:53.274Z,20.63
2019-03-22T12:09:54.656Z,20.67
2019-03-22T12:10:56.041Z,20.70
2019-03-22T12:11:58.431Z,20.71
2019-03-22T12:12:59.918Z,20.71
2019-03-22T12:14:01.391Z,20.72
2019-03-22T12:15:05.196Z,20.71
2019-03-22T12:16:06.574Z,20.71
2019-03-22T12:17:07.970Z,20.71
2019-03-22T12:18:09.360Z,20.69
2019-03-22T12:19:10.779Z,20.67
2019-03-22T12:20:17.737Z,20.67
2019-03-22T12:21:19.439Z,20.67
2019-03-22T12:22:20.860Z,20.66
2019-03-22T12:23:22.271Z,20.64
2019-03-22T12:24:23.644Z,20.63
2019-03-22T12:25:25.241Z,20.62
2019-03-22T12:26:26.610Z,20.62
2019-03-22T12:27:36.249Z,20.60
2019-03-22T12:28:31.316Z,20.60
2019-03-22T12:29:34.302Z,20.59
2019-03-22T12:30:35.739Z,20.59
2019-03-22T12:31:37.148Z,20.58
2019-03-22T12:32:38.865Z,20.57
2019-03-22T12:33:40.266Z,20.58
2019-03-22T12:34:41.644Z,20.58
2019-03-22T12:35:43.029Z,20.57
2019-03-22T12:36:44.485Z,20.57
2019-03-22T12:37:45.865Z,20.56
2019-03-22T12:38:47.247Z,20.56
2019-03-22T12:39:48.750Z,20.57
2019-03-22T12:40:50.150Z,20.57
2019-03-22T12:41:51.663Z,20.56
2019-03-22T12:42:53.073Z,20.57
2019-03-22T12:43:55.598Z,20.57
2019-03-22T12:44:57.000Z,20.58
2019-03-22T12:45:58.520Z,20.57
2019-03-22T12:46:59.923Z,20.55
2019-03-22T12:48:01.448Z,20.58
2019-03-22T12:49:03.951Z,20.58
2019-03-22T12:50:07.475Z,20.57
2019-03-22T12:51:08.886Z,20.57
2019-03-22T12:52:10.296Z,20.58
2019-03-22T12:53:11.711Z,20.58
2019-03-22T12:54:13.134Z,20.58
2019-03-22T12:55:14.727Z,20.59
2019-03-22T12:56:16.154Z,20.58
2019-03-22T12:57:17.652Z,20.58
2019-03-22T12:58:19.071Z,20.58
2019-03-22T12:59:20.502Z,20.58
2019-03-22T13:00:23.018Z,20.58
2019-03-22T13:01:24.437Z,20.58
2019-03-22T13:02:25.848Z,20.58
2019-03-22T13:03:27.261Z,20.57
2019-03-22T13:04:28.695Z,20.58
2019-03-22T13:05:30.122Z,20.58
2019-03-22T13:06:31.546Z,20.58
2019-03-22T13:07:33.043Z,20.58
2019-03-22T13:08:34.444Z,20.59
2019-03-22T13:09:35.874Z,20.57
2019-03-22T13:10:37.285Z,20.58
2019-03-22T13:11:38.704Z,20.57
2019-03-22T13:12:40.105Z,20.57
2019-03-22T13:13:41.528Z,20.58
2019-03-22T13:14:42.947Z,20.57
2019-03-22T13:15:44.353Z,20.57